sensor_id;sensor_type;location;lat;lon;timestamp;P1;durP1;ratioP1;P2;durP2;ratioP2
53010;SDS011;42803;55.762;38.084;2024-02-23T00:00:20;15.73;;;7.18;;
53010;SDS011;42803;55.762;38.084;2024-02-23T00:02:49;20.02;;;7.53;;
53010;SDS011;42803;55.762;38.084;2024-02-23T00:05:18;16.67;;;7.45;;
53010;SDS011;42803;55.762;38.084;2024-02-23T00:07:47;15.43;;;6.53;;
53010;SDS011;42803;55.762;38.084;2024-02-23T00:10:17;18.02;;;7.90;;
53010;SDS011;42803;55.762;38.084;2024-02-23T00:12:46;18.60;;;7.60;;
53010;SDS011;42803;55.762;38.084;2024-02-23T00:15:17;15.18;;;7.80;;
53010;SDS011;42803;55.762;38.084;2024-02-23T00:17:46;15.27;;;7.93;;
53010;SDS011;42803;55.762;38.084;2024-02-23T00:20:15;16.65;;;7.57;;
53010;SDS011;42803;55.762;38.084;2024-02-23T00:22:45;15.57;;;7.18;;
53010;SDS011;42803;55.762;38.084;2024-02-23T00:25:14;19.35;;;7.30;;
53010;SDS011;42803;55.762;38.084;2024-02-23T00:27:44;15.07;;;7.93;;
53010;SDS011;42803;55.762;38.084;2024-02-23T00:30:14;15.90;;;7.70;;
53010;SDS011;42803;55.762;38.084;2024-02-23T00:32:45;24.08;;;7.82;;
53010;SDS011;42803;55.762;38.084;2024-02-23T00:35:14;16.98;;;7.50;;
53010;SDS011;42803;55.762;38.084;2024-02-23T00:37:43;17.60;;;7.25;;
53010;SDS011;42803;55.762;38.084;2024-02-23T00:40:13;18.83;;;8.15;;
53010;SDS011;42803;55.762;38.084;2024-02-23T00:42:44;20.55;;;7.82;;
53010;SDS011;42803;55.762;38.084;2024-02-23T00:45:13;23.67;;;8.50;;
53010;SDS011;42803;55.762;38.084;2024-02-23T00:47:44;18.17;;;7.45;;
53010;SDS011;42803;55.762;38.084;2024-02-23T00:50:14;18.38;;;8.10;;
53010;SDS011;42803;55.762;38.084;2024-02-23T00:52:44;16.27;;;7.85;;
53010;SDS011;42803;55.762;38.084;2024-02-23T00:55:13;18.83;;;8.40;;
53010;SDS011;42803;55.762;38.084;2024-02-23T00:57:42;17.38;;;7.75;;
53010;SDS011;42803;55.762;38.084;2024-02-23T01:00:11;19.50;;;7.82;;
53010;SDS011;42803;55.762;38.084;2024-02-23T01:02:41;19.77;;;8.75;;
53010;SDS011;42803;55.762;38.084;2024-02-23T01:05:12;18.65;;;8.18;;
53010;SDS011;42803;55.762;38.084;2024-02-23T01:07:42;15.95;;;7.47;;
53010;SDS011;42803;55.762;38.084;2024-02-23T01:10:11;17.63;;;7.57;;
53010;SDS011;42803;55.762;38.084;2024-02-23T01:12:40;21.80;;;8.25;;
53010;SDS011;42803;55.762;38.084;2024-02-23T01:15:09;21.50;;;7.07;;
53010;SDS011;42803;55.762;38.084;2024-02-23T01:17:38;20.52;;;7.70;;
53010;SDS011;42803;55.762;38.084;2024-02-23T01:20:08;19.00;;;7.57;;
53010;SDS011;42803;55.762;38.084;2024-02-23T01:22:39;19.33;;;8.18;;
53010;SDS011;42803;55.762;38.084;2024-02-23T01:25:08;16.98;;;7.20;;
53010;SDS011;42803;55.762;38.084;2024-02-23T01:27:37;18.60;;;7.43;;
53010;SDS011;42803;55.762;38.084;2024-02-23T01:30:07;21.00;;;7.97;;
53010;SDS011;42803;55.762;38.084;2024-02-23T01:32:37;16.52;;;8.05;;
53010;SDS011;42803;55.762;38.084;2024-02-23T01:35:07;20.10;;;8.30;;
53010;SDS011;42803;55.762;38.084;2024-02-23T01:37:38;14.07;;;6.28;;
53010;SDS011;42803;55.762;38.084;2024-02-23T01:40:07;21.48;;;8.88;;
53010;SDS011;42803;55.762;38.084;2024-02-23T01:42:37;23.73;;;8.18;;
53010;SDS011;42803;55.762;38.084;2024-02-23T01:45:06;23.65;;;7.80;;
53010;SDS011;42803;55.762;38.084;2024-02-23T01:47:36;22.40;;;7.25;;
53010;SDS011;42803;55.762;38.084;2024-02-23T01:50:05;19.20;;;7.55;;
53010;SDS011;42803;55.762;38.084;2024-02-23T01:52:36;17.15;;;6.30;;
53010;SDS011;42803;55.762;38.084;2024-02-23T01:55:07;17.48;;;7.47;;
53010;SDS011;42803;55.762;38.084;2024-02-23T01:57:37;15.45;;;6.78;;
53010;SDS011;42803;55.762;38.084;2024-02-23T02:00:17;13.38;;;6.85;;
53010;SDS011;42803;55.762;38.084;2024-02-23T02:02:54;18.42;;;8.00;;
53010;SDS011;42803;55.762;38.084;2024-02-23T02:05:23;22.50;;;7.88;;
53010;SDS011;42803;55.762;38.084;2024-02-23T02:07:54;22.65;;;9.05;;
53010;SDS011;42803;55.762;38.084;2024-02-23T02:10:27;20.83;;;8.33;;
53010;SDS011;42803;55.762;38.084;2024-02-23T02:13:01;17.70;;;8.13;;
53010;SDS011;42803;55.762;38.084;2024-02-23T02:15:30;19.40;;;7.88;;
53010;SDS011;42803;55.762;38.084;2024-02-23T02:18:00;21.65;;;8.00;;
53010;SDS011;42803;55.762;38.084;2024-02-23T02:20:32;16.77;;;7.38;;
53010;SDS011;42803;55.762;38.084;2024-02-23T02:23:03;18.23;;;7.43;;
53010;SDS011;42803;55.762;38.084;2024-02-23T02:25:34;17.65;;;7.78;;
53010;SDS011;42803;55.762;38.084;2024-02-23T02:28:05;18.05;;;7.43;;
53010;SDS011;42803;55.762;38.084;2024-02-23T02:30:36;18.23;;;8.00;;
53010;SDS011;42803;55.762;38.084;2024-02-23T02:33:05;19.85;;;8.35;;
53010;SDS011;42803;55.762;38.084;2024-02-23T02:35:34;18.88;;;8.32;;
53010;SDS011;42803;55.762;38.084;2024-02-23T02:38:05;17.77;;;8.57;;
53010;SDS011;42803;55.762;38.084;2024-02-23T02:40:34;19.15;;;7.28;;
53010;SDS011;42803;55.762;38.084;2024-02-23T02:43:03;19.00;;;6.93;;
53010;SDS011;42803;55.762;38.084;2024-02-23T02:45:33;19.30;;;6.80;;
53010;SDS011;42803;55.762;38.084;2024-02-23T02:48:02;21.95;;;8.07;;
53010;SDS011;42803;55.762;38.084;2024-02-23T02:50:32;20.10;;;8.18;;
53010;SDS011;42803;55.762;38.084;2024-02-23T02:53:01;19.92;;;8.70;;
53010;SDS011;42803;55.762;38.084;2024-02-23T02:55:32;18.58;;;7.63;;
53010;SDS011;42803;55.762;38.084;2024-02-23T02:58:01;17.65;;;8.07;;
53010;SDS011;42803;55.762;38.084;2024-02-23T03:00:30;17.00;;;7.95;;
53010;SDS011;42803;55.762;38.084;2024-02-23T03:02:59;20.35;;;8.52;;
53010;SDS011;42803;55.762;38.084;2024-02-23T03:05:28;16.77;;;6.80;;
53010;SDS011;42803;55.762;38.084;2024-02-23T03:07:57;13.95;;;7.85;;
53010;SDS011;42803;55.762;38.084;2024-02-23T03:10:27;18.98;;;7.38;;
53010;SDS011;42803;55.762;38.084;2024-02-23T03:12:58;17.35;;;7.70;;
53010;SDS011;42803;55.762;38.084;2024-02-23T03:15:27;15.77;;;6.60;;
53010;SDS011;42803;55.762;38.084;2024-02-23T03:17:56;17.92;;;7.97;;
53010;SDS011;42803;55.762;38.084;2024-02-23T03:20:25;21.60;;;7.65;;
53010;SDS011;42803;55.762;38.084;2024-02-23T03:22:55;21.55;;;7.65;;
53010;SDS011;42803;55.762;38.084;2024-02-23T03:25:24;21.00;;;6.80;;
53010;SDS011;42803;55.762;38.084;2024-02-23T03:27:53;17.95;;;7.35;;
53010;SDS011;42803;55.762;38.084;2024-02-23T03:30:24;13.93;;;7.05;;
53010;SDS011;42803;55.762;38.084;2024-02-23T03:32:53;15.90;;;7.30;;
53010;SDS011;42803;55.762;38.084;2024-02-23T03:35:22;16.70;;;7.45;;
53010;SDS011;42803;55.762;38.084;2024-02-23T03:37:51;16.45;;;6.32;;
53010;SDS011;42803;55.762;38.084;2024-02-23T03:40:20;15.65;;;6.57;;
53010;SDS011;42803;55.762;38.084;2024-02-23T03:42:49;15.98;;;6.93;;
53010;SDS011;42803;55.762;38.084;2024-02-23T03:45:19;16.60;;;7.07;;
53010;SDS011;42803;55.762;38.084;2024-02-23T03:47:49;15.13;;;6.85;;
53010;SDS011;42803;55.762;38.084;2024-02-23T03:50:19;17.67;;;7.03;;
53010;SDS011;42803;55.762;38.084;2024-02-23T03:52:48;15.63;;;7.63;;
53010;SDS011;42803;55.762;38.084;2024-02-23T03:55:17;16.35;;;6.75;;
53010;SDS011;42803;55.762;38.084;2024-02-23T03:57:46;15.80;;;7.65;;
53010;SDS011;42803;55.762;38.084;2024-02-23T04:00:15;15.48;;;6.85;;
53010;SDS011;42803;55.762;38.084;2024-02-23T04:02:46;18.30;;;7.45;;
53010;SDS011;42803;55.762;38.084;2024-02-23T04:05:17;14.30;;;7.05;;
53010;SDS011;42803;55.762;38.084;2024-02-23T04:07:46;16.08;;;7.45;;
53010;SDS011;42803;55.762;38.084;2024-02-23T04:10:16;18.60;;;7.75;;
53010;SDS011;42803;55.762;38.084;2024-02-23T04:12:47;13.93;;;7.18;;
53010;SDS011;42803;55.762;38.084;2024-02-23T04:15:16;13.88;;;7.03;;
53010;SDS011;42803;55.762;38.084;2024-02-23T04:17:45;18.15;;;7.80;;
53010;SDS011;42803;55.762;38.084;2024-02-23T04:20:16;16.10;;;7.50;;
53010;SDS011;42803;55.762;38.084;2024-02-23T04:22:45;16.48;;;7.72;;
53010;SDS011;42803;55.762;38.084;2024-02-23T04:25:15;17.52;;;6.70;;
53010;SDS011;42803;55.762;38.084;2024-02-23T04:27:44;17.13;;;7.28;;
53010;SDS011;42803;55.762;38.084;2024-02-23T04:30:13;16.55;;;6.97;;
53010;SDS011;42803;55.762;38.084;2024-02-23T04:32:43;17.73;;;7.95;;
53010;SDS011;42803;55.762;38.084;2024-02-23T04:35:12;15.45;;;7.70;;
53010;SDS011;42803;55.762;38.084;2024-02-23T04:37:44;16.83;;;8.02;;
53010;SDS011;42803;55.762;38.084;2024-02-23T04:40:14;14.57;;;7.38;;
53010;SDS011;42803;55.762;38.084;2024-02-23T04:42:44;19.75;;;7.93;;
53010;SDS011;42803;55.762;38.084;2024-02-23T04:45:14;16.90;;;7.55;;
53010;SDS011;42803;55.762;38.084;2024-02-23T04:47:44;16.73;;;7.68;;
53010;SDS011;42803;55.762;38.084;2024-02-23T04:50:14;14.32;;;7.72;;
53010;SDS011;42803;55.762;38.084;2024-02-23T04:52:45;18.38;;;8.10;;
53010;SDS011;42803;55.762;38.084;2024-02-23T04:55:14;18.73;;;7.95;;
53010;SDS011;42803;55.762;38.084;2024-02-23T04:57:43;17.58;;;8.32;;
53010;SDS011;42803;55.762;38.084;2024-02-23T05:00:13;16.30;;;8.27;;
53010;SDS011;42803;55.762;38.084;2024-02-23T05:02:42;15.90;;;7.60;;
53010;SDS011;42803;55.762;38.084;2024-02-23T05:05:11;20.52;;;7.78;;
53010;SDS011;42803;55.762;38.084;2024-02-23T05:07:41;14.25;;;7.60;;
53010;SDS011;42803;55.762;38.084;2024-02-23T05:10:11;17.42;;;8.55;;
53010;SDS011;42803;55.762;38.084;2024-02-23T05:12:41;22.05;;;8.32;;
53010;SDS011;42803;55.762;38.084;2024-02-23T05:15:10;19.60;;;8.35;;
53010;SDS011;42803;55.762;38.084;2024-02-23T05:17:40;21.48;;;8.80;;
53010;SDS011;42803;55.762;38.084;2024-02-23T05:20:09;16.00;;;8.02;;
53010;SDS011;42803;55.762;38.084;2024-02-23T05:22:40;17.88;;;7.78;;
53010;SDS011;42803;55.762;38.084;2024-02-23T05:25:09;16.85;;;7.57;;
53010;SDS011;42803;55.762;38.084;2024-02-23T05:27:40;16.33;;;7.45;;
53010;SDS011;42803;55.762;38.084;2024-02-23T05:30:10;18.70;;;7.40;;
53010;SDS011;42803;55.762;38.084;2024-02-23T05:32:40;19.98;;;7.57;;
53010;SDS011;42803;55.762;38.084;2024-02-23T05:35:09;19.52;;;8.20;;
53010;SDS011;42803;55.762;38.084;2024-02-23T05:37:38;18.63;;;8.38;;
53010;SDS011;42803;55.762;38.084;2024-02-23T05:40:08;20.05;;;9.60;;
53010;SDS011;42803;55.762;38.084;2024-02-23T05:42:39;18.60;;;8.32;;
53010;SDS011;42803;55.762;38.084;2024-02-23T05:45:09;17.88;;;7.72;;
53010;SDS011;42803;55.762;38.084;2024-02-23T05:47:38;14.05;;;7.97;;
53010;SDS011;42803;55.762;38.084;2024-02-23T05:50:13;17.27;;;7.65;;
53010;SDS011;42803;55.762;38.084;2024-02-23T05:52:42;22.10;;;9.10;;
53010;SDS011;42803;55.762;38.084;2024-02-23T05:55:12;17.60;;;7.40;;
53010;SDS011;42803;55.762;38.084;2024-02-23T05:57:42;19.92;;;8.77;;
53010;SDS011;42803;55.762;38.084;2024-02-23T06:00:12;18.60;;;7.60;;
53010;SDS011;42803;55.762;38.084;2024-02-23T06:02:43;19.65;;;8.65;;
53010;SDS011;42803;55.762;38.084;2024-02-23T06:05:12;15.95;;;8.07;;
53010;SDS011;42803;55.762;38.084;2024-02-23T06:07:41;21.25;;;8.48;;
53010;SDS011;42803;55.762;38.084;2024-02-23T06:10:11;21.88;;;8.93;;
53010;SDS011;42803;55.762;38.084;2024-02-23T06:12:40;17.20;;;8.38;;
53010;SDS011;42803;55.762;38.084;2024-02-23T06:15:11;21.90;;;7.78;;
53010;SDS011;42803;55.762;38.084;2024-02-23T06:17:40;18.17;;;8.35;;
53010;SDS011;42803;55.762;38.084;2024-02-23T06:20:11;22.52;;;8.55;;
53010;SDS011;42803;55.762;38.084;2024-02-23T06:22:40;17.95;;;8.10;;
53010;SDS011;42803;55.762;38.084;2024-02-23T06:25:10;24.80;;;8.02;;
53010;SDS011;42803;55.762;38.084;2024-02-23T06:27:40;16.73;;;8.07;;
53010;SDS011;42803;55.762;38.084;2024-02-23T06:30:11;16.90;;;7.03;;
53010;SDS011;42803;55.762;38.084;2024-02-23T06:32:40;27.83;;;10.98;;
53010;SDS011;42803;55.762;38.084;2024-02-23T06:35:10;19.08;;;8.85;;
53010;SDS011;42803;55.762;38.084;2024-02-23T06:37:40;17.42;;;7.70;;
53010;SDS011;42803;55.762;38.084;2024-02-23T06:40:09;21.10;;;8.07;;
53010;SDS011;42803;55.762;38.084;2024-02-23T06:42:39;16.70;;;7.88;;
53010;SDS011;42803;55.762;38.084;2024-02-23T06:45:08;19.13;;;7.45;;
53010;SDS011;42803;55.762;38.084;2024-02-23T06:47:39;16.70;;;7.68;;
53010;SDS011;42803;55.762;38.084;2024-02-23T06:50:10;17.02;;;7.93;;
53010;SDS011;42803;55.762;38.084;2024-02-23T06:52:39;19.80;;;8.52;;
53010;SDS011;42803;55.762;38.084;2024-02-23T06:55:08;13.82;;;7.53;;
53010;SDS011;42803;55.762;38.084;2024-02-23T06:57:37;17.30;;;6.82;;
53010;SDS011;42803;55.762;38.084;2024-02-23T07:00:07;20.50;;;7.40;;
53010;SDS011;42803;55.762;38.084;2024-02-23T07:02:39;16.85;;;7.60;;
53010;SDS011;42803;55.762;38.084;2024-02-23T07:05:08;19.77;;;7.72;;
53010;SDS011;42803;55.762;38.084;2024-02-23T07:07:38;31.83;;;7.60;;
53010;SDS011;42803;55.762;38.084;2024-02-23T07:10:08;22.45;;;7.80;;
53010;SDS011;42803;55.762;38.084;2024-02-23T07:12:38;15.32;;;7.38;;
53010;SDS011;42803;55.762;38.084;2024-02-23T07:15:12;20.20;;;7.95;;
53010;SDS011;42803;55.762;38.084;2024-02-23T07:17:42;24.20;;;8.63;;
53010;SDS011;42803;55.762;38.084;2024-02-23T07:20:13;21.65;;;8.48;;
53010;SDS011;42803;55.762;38.084;2024-02-23T07:22:44;17.88;;;7.32;;
53010;SDS011;42803;55.762;38.084;2024-02-23T07:25:15;15.90;;;7.20;;
53010;SDS011;42803;55.762;38.084;2024-02-23T07:27:45;20.15;;;7.95;;
53010;SDS011;42803;55.762;38.084;2024-02-23T07:30:16;14.68;;;7.18;;
53010;SDS011;42803;55.762;38.084;2024-02-23T07:32:48;21.13;;;8.48;;
53010;SDS011;42803;55.762;38.084;2024-02-23T07:35:20;15.98;;;8.23;;
53010;SDS011;42803;55.762;38.084;2024-02-23T07:37:49;16.15;;;7.25;;
53010;SDS011;42803;55.762;38.084;2024-02-23T07:40:18;15.23;;;7.35;;
53010;SDS011;42803;55.762;38.084;2024-02-23T07:42:49;16.33;;;7.13;;
53010;SDS011;42803;55.762;38.084;2024-02-23T07:45:18;14.10;;;8.00;;
53010;SDS011;42803;55.762;38.084;2024-02-23T07:47:48;20.52;;;7.07;;
53010;SDS011;42803;55.762;38.084;2024-02-23T07:50:18;14.05;;;6.57;;
53010;SDS011;42803;55.762;38.084;2024-02-23T07:52:47;15.75;;;7.45;;
53010;SDS011;42803;55.762;38.084;2024-02-23T07:55:16;18.63;;;7.93;;
53010;SDS011;42803;55.762;38.084;2024-02-23T07:57:45;18.70;;;6.47;;
53010;SDS011;42803;55.762;38.084;2024-02-23T08:00:15;13.93;;;6.70;;
53010;SDS011;42803;55.762;38.084;2024-02-23T08:02:44;17.38;;;6.10;;
53010;SDS011;42803;55.762;38.084;2024-02-23T08:05:15;20.88;;;6.93;;
53010;SDS011;42803;55.762;38.084;2024-02-23T08:07:45;15.98;;;7.43;;
53010;SDS011;42803;55.762;38.084;2024-02-23T08:10:15;13.93;;;7.15;;
53010;SDS011;42803;55.762;38.084;2024-02-23T08:12:44;16.35;;;7.43;;
53010;SDS011;42803;55.762;38.084;2024-02-23T08:15:14;19.67;;;7.43;;
53010;SDS011;42803;55.762;38.084;2024-02-23T08:17:43;23.98;;;6.10;;
53010;SDS011;42803;55.762;38.084;2024-02-23T08:20:12;15.27;;;7.10;;
53010;SDS011;42803;55.762;38.084;2024-02-23T08:22:43;17.30;;;7.03;;
53010;SDS011;42803;55.762;38.084;2024-02-23T08:25:12;16.50;;;6.90;;
53010;SDS011;42803;55.762;38.084;2024-02-23T08:27:42;23.17;;;7.55;;
53010;SDS011;42803;55.762;38.084;2024-02-23T08:30:13;18.13;;;7.15;;
53010;SDS011;42803;55.762;38.084;2024-02-23T08:32:43;18.98;;;7.95;;
53010;SDS011;42803;55.762;38.084;2024-02-23T08:35:15;20.13;;;7.70;;
53010;SDS011;42803;55.762;38.084;2024-02-23T08:37:46;14.85;;;7.30;;
53010;SDS011;42803;55.762;38.084;2024-02-23T08:40:15;18.08;;;8.25;;
53010;SDS011;42803;55.762;38.084;2024-02-23T08:42:45;15.02;;;6.75;;
53010;SDS011;42803;55.762;38.084;2024-02-23T08:45:17;12.35;;;6.63;;
53010;SDS011;42803;55.762;38.084;2024-02-23T08:47:46;19.77;;;7.93;;
53010;SDS011;42803;55.762;38.084;2024-02-23T08:50:16;17.65;;;7.57;;
53010;SDS011;42803;55.762;38.084;2024-02-23T08:52:48;15.27;;;6.82;;
53010;SDS011;42803;55.762;38.084;2024-02-23T08:55:19;22.75;;;7.95;;
53010;SDS011;42803;55.762;38.084;2024-02-23T08:57:49;17.50;;;7.20;;
53010;SDS011;42803;55.762;38.084;2024-02-23T09:00:19;16.80;;;6.95;;
53010;SDS011;42803;55.762;38.084;2024-02-23T09:02:48;16.48;;;7.03;;
53010;SDS011;42803;55.762;38.084;2024-02-23T09:05:17;19.70;;;7.88;;
53010;SDS011;42803;55.762;38.084;2024-02-23T09:07:49;13.75;;;6.95;;
53010;SDS011;42803;55.762;38.084;2024-02-23T09:10:19;16.25;;;7.32;;
53010;SDS011;42803;55.762;38.084;2024-02-23T09:12:48;19.20;;;7.60;;
53010;SDS011;42803;55.762;38.084;2024-02-23T09:15:34;28.52;;;11.65;;
53010;SDS011;42803;55.762;38.084;2024-02-23T09:18:04;16.38;;;7.32;;
53010;SDS011;42803;55.762;38.084;2024-02-23T09:20:34;18.10;;;7.68;;
53010;SDS011;42803;55.762;38.084;2024-02-23T09:23:06;20.45;;;7.32;;
53010;SDS011;42803;55.762;38.084;2024-02-23T09:25:36;15.30;;;6.55;;
53010;SDS011;42803;55.762;38.084;2024-02-23T09:28:08;17.20;;;8.23;;
53010;SDS011;42803;55.762;38.084;2024-02-23T09:30:39;20.92;;;7.85;;
53010;SDS011;42803;55.762;38.084;2024-02-23T09:33:09;17.13;;;7.45;;
53010;SDS011;42803;55.762;38.084;2024-02-23T09:35:38;19.10;;;8.07;;
53010;SDS011;42803;55.762;38.084;2024-02-23T09:38:09;17.23;;;7.63;;
53010;SDS011;42803;55.762;38.084;2024-02-23T09:40:40;12.73;;;6.55;;
53010;SDS011;42803;55.762;38.084;2024-02-23T09:43:09;24.00;;;9.05;;
53010;SDS011;42803;55.762;38.084;2024-02-23T09:45:41;18.42;;;8.18;;
53010;SDS011;42803;55.762;38.084;2024-02-23T09:48:10;15.95;;;7.60;;
53010;SDS011;42803;55.762;38.084;2024-02-23T09:50:42;18.02;;;7.53;;
53010;SDS011;42803;55.762;38.084;2024-02-23T09:53:15;17.98;;;8.50;;
53010;SDS011;42803;55.762;38.084;2024-02-23T09:55:48;15.13;;;7.35;;
53010;SDS011;42803;55.762;38.084;2024-02-23T09:58:20;19.85;;;8.15;;
53010;SDS011;42803;55.762;38.084;2024-02-23T10:00:51;18.60;;;6.90;;
53010;SDS011;42803;55.762;38.084;2024-02-23T10:03:38;12.90;;;6.53;;
53010;SDS011;42803;55.762;38.084;2024-02-23T10:06:10;18.38;;;7.47;;
53010;SDS011;42803;55.762;38.084;2024-02-23T10:08:42;15.13;;;6.95;;
53010;SDS011;42803;55.762;38.084;2024-02-23T10:11:13;16.38;;;7.38;;
53010;SDS011;42803;55.762;38.084;2024-02-23T10:13:43;13.60;;;7.30;;
53010;SDS011;42803;55.762;38.084;2024-02-23T10:16:12;16.33;;;8.32;;
53010;SDS011;42803;55.762;38.084;2024-02-23T10:18:43;16.70;;;7.07;;
53010;SDS011;42803;55.762;38.084;2024-02-23T10:21:12;18.10;;;6.93;;
53010;SDS011;42803;55.762;38.084;2024-02-23T10:23:43;16.77;;;7.35;;
53010;SDS011;42803;55.762;38.084;2024-02-23T10:26:14;13.45;;;6.57;;
53010;SDS011;42803;55.762;38.084;2024-02-23T10:28:47;15.43;;;6.85;;
53010;SDS011;42803;55.762;38.084;2024-02-23T10:31:18;14.10;;;7.30;;
53010;SDS011;42803;55.762;38.084;2024-02-23T10:33:48;15.80;;;8.13;;
53010;SDS011;42803;55.762;38.084;2024-02-23T10:36:20;20.00;;;8.82;;
53010;SDS011;42803;55.762;38.084;2024-02-23T10:38:54;15.68;;;7.80;;
53010;SDS011;42803;55.762;38.084;2024-02-23T10:41:32;19.63;;;7.25;;
53010;SDS011;42803;55.762;38.084;2024-02-23T10:44:04;20.75;;;8.10;;
53010;SDS011;42803;55.762;38.084;2024-02-23T10:46:35;20.27;;;7.75;;
53010;SDS011;42803;55.762;38.084;2024-02-23T10:49:10;15.70;;;7.03;;
53010;SDS011;42803;55.762;38.084;2024-02-23T10:51:41;16.13;;;7.40;;
53010;SDS011;42803;55.762;38.084;2024-02-23T10:54:13;19.38;;;8.23;;
53010;SDS011;42803;55.762;38.084;2024-02-23T10:57:04;16.83;;;7.55;;
53010;SDS011;42803;55.762;38.084;2024-02-23T10:59:33;17.02;;;8.13;;
53010;SDS011;42803;55.762;38.084;2024-02-23T11:02:03;21.15;;;7.70;;
53010;SDS011;42803;55.762;38.084;2024-02-23T11:04:33;20.67;;;8.23;;
53010;SDS011;42803;55.762;38.084;2024-02-23T11:07:04;23.55;;;8.02;;
53010;SDS011;42803;55.762;38.084;2024-02-23T11:09:47;23.48;;;8.85;;
53010;SDS011;42803;55.762;38.084;2024-02-23T11:14:56;15.43;;;7.63;;
53010;SDS011;42803;55.762;38.084;2024-02-23T11:17:26;16.02;;;7.50;;
53010;SDS011;42803;55.762;38.084;2024-02-23T11:19:57;21.50;;;8.52;;
53010;SDS011;42803;55.762;38.084;2024-02-23T11:22:26;19.45;;;8.15;;
53010;SDS011;42803;55.762;38.084;2024-02-23T11:25:07;21.55;;;7.68;;
53010;SDS011;42803;55.762;38.084;2024-02-23T11:27:38;18.38;;;7.60;;
53010;SDS011;42803;55.762;38.084;2024-02-23T11:30:10;17.73;;;7.63;;
53010;SDS011;42803;55.762;38.084;2024-02-23T11:32:40;21.35;;;8.50;;
53010;SDS011;42803;55.762;38.084;2024-02-23T11:35:11;24.38;;;9.05;;
53010;SDS011;42803;55.762;38.084;2024-02-23T11:37:45;26.55;;;8.45;;
53010;SDS011;42803;55.762;38.084;2024-02-23T11:40:16;24.88;;;9.23;;
53010;SDS011;42803;55.762;38.084;2024-02-23T11:42:47;20.40;;;7.97;;
53010;SDS011;42803;55.762;38.084;2024-02-23T11:45:16;23.40;;;8.68;;
53010;SDS011;42803;55.762;38.084;2024-02-23T11:47:48;23.60;;;8.43;;
53010;SDS011;42803;55.762;38.084;2024-02-23T11:50:18;21.17;;;7.90;;
53010;SDS011;42803;55.762;38.084;2024-02-23T11:52:49;23.48;;;8.15;;
53010;SDS011;42803;55.762;38.084;2024-02-23T11:55:20;19.45;;;8.05;;
53010;SDS011;42803;55.762;38.084;2024-02-23T11:57:51;19.30;;;8.43;;
53010;SDS011;42803;55.762;38.084;2024-02-23T12:00:34;19.70;;;8.60;;
53010;SDS011;42803;55.762;38.084;2024-02-23T12:03:05;21.90;;;8.20;;
53010;SDS011;42803;55.762;38.084;2024-02-23T12:05:34;25.95;;;8.73;;
53010;SDS011;42803;55.762;38.084;2024-02-23T12:08:04;22.50;;;7.85;;
53010;SDS011;42803;55.762;38.084;2024-02-23T12:10:36;22.38;;;9.32;;
53010;SDS011;42803;55.762;38.084;2024-02-23T12:13:05;21.92;;;8.20;;
53010;SDS011;42803;55.762;38.084;2024-02-23T12:15:35;24.58;;;9.25;;
53010;SDS011;42803;55.762;38.084;2024-02-23T12:18:05;24.40;;;9.00;;
53010;SDS011;42803;55.762;38.084;2024-02-23T12:20:38;29.58;;;9.70;;
53010;SDS011;42803;55.762;38.084;2024-02-23T12:23:07;27.20;;;8.65;;
53010;SDS011;42803;55.762;38.084;2024-02-23T12:25:39;28.27;;;10.23;;
53010;SDS011;42803;55.762;38.084;2024-02-23T12:28:09;22.30;;;9.57;;
53010;SDS011;42803;55.762;38.084;2024-02-23T12:30:39;26.17;;;9.20;;
53010;SDS011;42803;55.762;38.084;2024-02-23T12:33:09;23.77;;;8.63;;
53010;SDS011;42803;55.762;38.084;2024-02-23T12:35:38;18.27;;;8.40;;
53010;SDS011;42803;55.762;38.084;2024-02-23T12:38:08;23.10;;;9.32;;
53010;SDS011;42803;55.762;38.084;2024-02-23T12:40:40;26.58;;;9.48;;
53010;SDS011;42803;55.762;38.084;2024-02-23T12:43:09;24.92;;;8.30;;
53010;SDS011;42803;55.762;38.084;2024-02-23T12:45:39;24.48;;;9.02;;
53010;SDS011;42803;55.762;38.084;2024-02-23T12:48:08;25.48;;;8.60;;
53010;SDS011;42803;55.762;38.084;2024-02-23T12:50:38;20.40;;;8.73;;
53010;SDS011;42803;55.762;38.084;2024-02-23T12:53:08;28.70;;;10.02;;
53010;SDS011;42803;55.762;38.084;2024-02-23T12:55:37;26.63;;;10.32;;
53010;SDS011;42803;55.762;38.084;2024-02-23T12:58:08;27.80;;;9.05;;
53010;SDS011;42803;55.762;38.084;2024-02-23T13:00:37;24.00;;;9.82;;
53010;SDS011;42803;55.762;38.084;2024-02-23T13:03:07;30.55;;;9.95;;
53010;SDS011;42803;55.762;38.084;2024-02-23T13:05:37;22.40;;;8.90;;
53010;SDS011;42803;55.762;38.084;2024-02-23T13:08:07;30.25;;;10.95;;
53010;SDS011;42803;55.762;38.084;2024-02-23T13:10:36;28.00;;;9.77;;
53010;SDS011;42803;55.762;38.084;2024-02-23T13:13:05;23.55;;;9.57;;
53010;SDS011;42803;55.762;38.084;2024-02-23T13:15:36;26.63;;;10.00;;
53010;SDS011;42803;55.762;38.084;2024-02-23T13:18:06;30.33;;;9.55;;
53010;SDS011;42803;55.762;38.084;2024-02-23T13:20:36;30.77;;;11.00;;
53010;SDS011;42803;55.762;38.084;2024-02-23T13:23:06;29.10;;;10.73;;
53010;SDS011;42803;55.762;38.084;2024-02-23T13:25:36;28.90;;;10.88;;
53010;SDS011;42803;55.762;38.084;2024-02-23T13:30:55;31.23;;;11.07;;
53010;SDS011;42803;55.762;38.084;2024-02-23T13:33:25;31.15;;;11.30;;
53010;SDS011;42803;55.762;38.084;2024-02-23T13:35:54;34.17;;;11.73;;
53010;SDS011;42803;55.762;38.084;2024-02-23T13:38:24;33.40;;;10.77;;
53010;SDS011;42803;55.762;38.084;2024-02-23T13:40:53;34.53;;;11.77;;
53010;SDS011;42803;55.762;38.084;2024-02-23T13:43:42;32.53;;;10.23;;
53010;SDS011;42803;55.762;38.084;2024-02-23T13:46:12;27.95;;;10.15;;
53010;SDS011;42803;55.762;38.084;2024-02-23T13:48:41;27.20;;;10.35;;
53010;SDS011;42803;55.762;38.084;2024-02-23T13:51:11;25.95;;;10.68;;
53010;SDS011;42803;55.762;38.084;2024-02-23T13:53:41;30.45;;;12.18;;
53010;SDS011;42803;55.762;38.084;2024-02-23T13:56:10;33.30;;;11.35;;
53010;SDS011;42803;55.762;38.084;2024-02-23T13:58:40;32.45;;;10.27;;
53010;SDS011;42803;55.762;38.084;2024-02-23T14:01:11;29.15;;;11.18;;
53010;SDS011;42803;55.762;38.084;2024-02-23T14:03:41;33.83;;;11.50;;
53010;SDS011;42803;55.762;38.084;2024-02-23T14:06:10;28.30;;;10.13;;
53010;SDS011;42803;55.762;38.084;2024-02-23T14:08:39;30.00;;;11.25;;
53010;SDS011;42803;55.762;38.084;2024-02-23T14:11:10;28.88;;;11.48;;
53010;SDS011;42803;55.762;38.084;2024-02-23T14:13:40;27.58;;;10.48;;
53010;SDS011;42803;55.762;38.084;2024-02-23T14:16:17;29.48;;;10.05;;
53010;SDS011;42803;55.762;38.084;2024-02-23T14:18:47;27.42;;;10.10;;
53010;SDS011;42803;55.762;38.084;2024-02-23T14:21:16;28.40;;;10.98;;
53010;SDS011;42803;55.762;38.084;2024-02-23T14:23:46;34.15;;;11.88;;
53010;SDS011;42803;55.762;38.084;2024-02-23T14:26:15;30.48;;;11.13;;
53010;SDS011;42803;55.762;38.084;2024-02-23T14:28:45;28.35;;;11.20;;
53010;SDS011;42803;55.762;38.084;2024-02-23T14:31:17;31.55;;;11.00;;
53010;SDS011;42803;55.762;38.084;2024-02-23T14:33:47;27.20;;;10.88;;
53010;SDS011;42803;55.762;38.084;2024-02-23T14:36:18;31.35;;;11.93;;
53010;SDS011;42803;55.762;38.084;2024-02-23T14:38:49;28.00;;;10.98;;
53010;SDS011;42803;55.762;38.084;2024-02-23T14:41:23;32.63;;;10.95;;
53010;SDS011;42803;55.762;38.084;2024-02-23T14:43:52;31.05;;;11.02;;